Time;durP1;ratioP1;P1;durP2;ratioP2;P2;SDS_P1;SDS_P2;PMS_P1;PMS_P2;Temp;Humidity;BMP_temperature;BMP_pressure;BME280_temperature;BME280_humidity;BME280_pressure;Samples;Min_cycle;Max_cycle;Signal;HPM_P1;HPM_P2
2021/10/30 04:26:21;;;;;;;;;45.00;37.00;;;;;11.90;43.66;98881.41;7464967;23;97390;-66
2021/10/30 04:29:25;;;;;;;;;49.40;38.40;;;;;11.84;43.63;98876.94;6011027;29;97971;-70
2021/10/30 04:32:28;;;;;;;;;47.75;37.75;;;;;11.67;44.04;98878.59;5988038;29;97421;-66
2021/10/30 04:35:32;;;;;;;;;49.80;39.20;;;;;11.47;44.36;98873.47;5980613;29;98498;-68
2021/10/30 04:38:35;;;;;;;;;50.80;41.00;;;;;11.35;44.61;98879.84;6011774;29;97896;-68
2021/10/30 05:04:38;;;;;;;;;56.25;44.00;;;;;10.83;46.02;98860.53;6019448;29;97097;-66
2021/10/30 05:07:42;;;;;;;;;56.60;44.00;;;;;10.79;45.92;98862.03;6001254;29;96664;-66
2021/10/30 05:10:45;;;;;;;;;55.40;44.00;;;;;10.78;45.90;98860.38;5993438;29;96753;-68
2021/10/30 05:13:48;;;;;;;;;54.60;43.00;;;;;10.72;46.17;98854.00;6017580;29;96747;-66
2021/10/30 05:16:51;;;;;;;;;53.00;42.40;;;;;10.68;46.17;98860.06;6017815;29;97221;-66
2021/10/30 05:19:56;;;;;;;;;53.00;42.00;;;;;10.67;46.12;98851.16;6018381;29;97440;-68
2021/10/30 05:22:59;;;;;;;;;52.75;41.25;;;;;10.69;46.12;98850.94;6017063;29;97582;-66
2021/10/30 05:26:02;;;;;;;;;54.40;42.00;;;;;10.71;46.08;98857.75;6019277;29;97492;-68
2021/10/30 05:29:06;;;;;;;;;52.00;41.00;;;;;10.69;45.92;98859.03;6018949;29;97499;-67
2021/10/30 05:32:09;;;;;;;;;53.00;42.60;;;;;10.67;45.96;98855.72;6018206;29;96659;-68
2021/10/30 05:35:34;;;;;;;;;53.00;43.00;;;;;10.70;45.99;98852.59;6002373;29;99509;-68
2021/10/30 05:38:51;;;;;;;;;52.50;41.00;;;;;10.71;45.98;98859.63;5994875;29;96645;-68
2021/10/30 05:41:54;;;;;;;;;52.20;43.20;;;;;10.70;46.16;98847.22;6012354;29;96835;-67
2021/10/30 05:44:58;;;;;;;;;53.40;43.00;;;;;10.72;46.26;98850.47;6019568;29;97791;-69
2021/10/30 05:48:03;;;;;;;;;51.50;41.00;;;;;10.81;46.02;98849.13;6019605;29;97097;-68
2021/10/30 05:51:08;;;;;;;;;53.00;41.60;;;;;10.98;45.74;98850.22;6020752;28;97498;-68
2021/10/30 05:54:15;;;;;;;;;50.00;41.00;;;;;11.27;45.22;98846.75;6014330;29;96778;-68
2021/10/30 05:57:19;;;;;;;;;50.25;40.00;;;;;11.71;44.33;98842.81;6018962;29;96693;-68
2021/10/30 06:00:22;;;;;;;;;49.00;40.20;;;;;12.24;43.45;98857.41;6010440;29;96765;-67
2021/10/30 06:03:25;;;;;;;;;49.20;40.00;;;;;12.85;42.17;98849.63;6000906;29;97290;-67
2021/10/30 06:06:30;;;;;;;;;49.00;41.00;;;;;13.85;40.42;98850.06;6015457;29;96861;-68
2021/10/30 06:09:34;;;;;;;;;48.80;39.20;;;;;15.41;37.58;98845.38;5999967;29;96631;-69
2021/10/30 06:12:39;;;;;;;;;50.00;40.60;;;;;17.19;34.18;98839.56;6017734;29;97347;-69
2021/10/30 06:15:43;;;;;;;;;49.00;39.00;;;;;19.02;30.97;98834.03;6017583;29;97472;-68
2021/10/30 06:18:46;;;;;;;;;47.40;38.00;;;;;20.74;28.51;98845.88;6019017;29;96525;-67
2021/10/30 06:21:51;;;;;;;;;47.40;37.00;;;;;22.19;26.50;98851.78;6019479;29;96644;-67
2021/10/30 06:24:54;;;;;;;;;46.00;38.00;;;;;23.31;25.07;98852.28;6019009;29;97163;-69
2021/10/30 06:27:57;;;;;;;;;45.00;36.00;;;;;24.46;23.55;98863.81;6005107;29;97966;-69
2021/10/30 06:31:01;;;;;;;;;45.00;36.00;;;;;25.39;22.07;98861.13;6019027;29;97028;-69
2021/10/30 06:34:04;;;;;;;;;45.00;36.60;;;;;26.24;21.28;98871.56;6033222;28;96931;-68
2021/10/30 06:37:09;;;;;;;;;44.50;35.75;;;;;27.03;20.39;98870.34;6018670;29;98070;-68
2021/10/30 06:40:14;;;;;;;;;40.40;33.60;;;;;27.62;19.63;98874.03;6018775;29;98097;-68
2021/10/30 06:43:17;;;;;;;;;42.40;35.00;;;;;28.31;18.85;98881.94;6018790;29;97108;-67
2021/10/30 06:46:22;;;;;;;;;44.00;36.00;;;;;28.81;18.17;98884.59;6021036;29;97453;-66
2021/10/30 06:49:25;;;;;;;;;42.50;35.00;;;;;29.32;17.31;98874.94;6004415;29;96867;-67
2021/10/30 06:52:36;;;;;;;;;41.40;35.00;;;;;29.83;17.02;98884.53;6021996;29;97068;-68
2021/10/30 06:55:40;;;;;;;;;45.00;36.50;;;;;30.40;16.25;98875.97;6021838;29;97642;-68
2021/10/30 06:58:46;;;;;;;;;42.00;36.00;;;;;30.95;15.97;98883.53;6004102;29;97563;-68
2021/10/30 07:01:49;;;;;;;;;40.60;34.60;;;;;31.23;15.33;98886.28;6021631;29;97567;-68
2021/10/30 07:04:53;;;;;;;;;40.40;34.40;;;;;31.71;15.45;98887.16;6022244;29;96633;-67
2021/10/30 07:07:57;;;;;;;;;42.75;35.00;;;;;32.09;15.09;98890.03;6019549;29;97321;-67
2021/10/30 07:11:01;;;;;;;;;40.80;34.40;;;;;32.50;14.81;98898.94;5995678;29;96940;-68
2021/10/30 07:14:04;;;;;;;;;40.00;35.00;;;;;32.91;14.37;98891.81;6015643;29;98150;-67
2021/10/30 07:17:07;;;;;;;;;41.50;35.00;;;;;33.35;14.02;98889.47;6020241;29;97008;-67
2021/10/30 07:20:12;;;;;;;;;44.25;36.00;;;;;33.70;14.01;98887.28;5988847;29;98456;-68
2021/10/30 07:23:18;;;;;;;;;42.50;35.25;;;;;34.04;13.78;98885.41;6004157;29;97929;-69
2021/10/30 07:26:22;;;;;;;;;46.00;37.00;;;;;34.22;13.67;98888.47;6019270;29;96702;-68
2021/10/30 07:29:25;;;;;;;;;42.00;35.00;;;;;34.56;13.01;98895.75;6021948;29;96949;-67
2021/10/30 07:32:28;;;;;;;;;43.00;35.40;;;;;34.91;13.14;98892.59;6004069;29;97378;-67
2021/10/30 07:35:32;;;;;;;;;35.60;32.00;;;;;35.40;12.81;98894.31;6021520;29;97075;-67
2021/10/30 07:38:37;;;;;;;;;36.50;32.00;;;;;35.60;12.73;98890.09;6022233;29;97482;-68
2021/10/30 07:41:40;;;;;;;;;35.20;30.00;;;;;35.96;11.96;98894.00;6019743;29;96769;-68
2021/10/30 07:44:43;;;;;;;;;31.40;30.00;;;;;36.32;11.88;98900.66;6021261;29;97487;-68
2021/10/30 07:47:47;;;;;;;;;33.00;30.00;;;;;36.44;11.22;98889.91;6021882;29;96901;-70
2021/10/30 07:50:50;;;;;;;;;32.00;29.00;;;;;36.68;11.38;98884.81;5998205;29;97210;-68
2021/10/30 07:53:54;;;;;;;;;34.00;30.00;;;;;36.85;10.92;98878.44;5999622;29;96838;-67
2021/10/30 07:56:58;;;;;;;;;36.00;30.80;;;;;36.80;11.38;98885.25;6021157;29;96704;-68
2021/10/30 08:00:01;;;;;;;;;33.00;31.00;;;;;36.93;11.69;98894.13;6021617;29;97491;-68
2021/10/30 08:03:14;;;;;;;;;33.40;30.00;;;;;37.01;11.26;98890.13;6003191;29;97158;-67
2021/10/30 08:06:17;;;;;;;;;30.50;30.00;;;;;37.17;11.41;98886.97;6002738;29;97813;-68
2021/10/30 08:09:22;;;;;;;;;33.00;30.00;;;;;37.32;11.05;98894.25;5999568;29;96730;-69
2021/10/30 08:12:25;;;;;;;;;30.60;30.00;;;;;37.65;11.54;98893.88;6019354;29;97598;-67
2021/10/30 08:15:29;;;;;;;;;31.60;30.00;;;;;37.93;10.65;98889.41;6004087;29;98464;-67
2021/10/30 08:18:32;;;;;;;;;34.00;30.40;;;;;38.13;10.80;98882.97;6021731;29;97399;-69
2021/10/30 08:21:35;;;;;;;;;33.20;30.00;;;;;38.46;10.38;98881.69;6019497;29;96527;-68
2021/10/30 08:24:48;;;;;;;;;31.50;28.50;;;;;38.84;10.88;98887.59;6021715;29;97469;-71
2021/10/30 08:27:51;;;;;;;;;33.60;30.00;;;;;38.86;10.70;98885.16;6016772;29;97543;-66
2021/10/30 08:30:55;;;;;;;;;32.00;30.60;;;;;38.99;10.33;98887.13;6004238;29;97605;-68
2021/10/30 08:34:01;;;;;;;;;35.40;32.00;;;;;38.84;10.80;98884.78;6019349;29;96664;-66
2021/10/30 08:37:05;;;;;;;;;30.00;28.00;;;;;38.48;10.88;98876.47;6021407;29;97519;-67
2021/10/30 08:40:12;;;;;;;;;35.20;31.40;;;;;38.42;10.72;98877.25;6003842;29;96844;-68
2021/10/30 08:43:36;;;;;;;;;34.00;31.50;;;;;38.71;10.91;98873.16;6003033;29;96921;-68
2021/10/30 08:46:39;;;;;;;;;36.50;32.50;;;;;38.91;10.63;98887.56;6020452;29;96770;-68
2021/10/30 08:49:44;;;;;;;;;37.40;33.00;;;;;39.17;10.67;98886.22;6020556;29;97776;-68
2021/10/30 08:52:47;;;;;;;;;34.00;31.00;;;;;39.23;10.40;98882.56;6020608;29;96876;-68
2021/10/30 08:55:53;;;;;;;;;32.00;30.00;;;;;39.46;10.32;98876.34;6020168;29;96864;-68
2021/10/30 08:58:57;;;;;;;;;37.00;32.00;;;;;39.28;10.38;98878.47;6020257;29;96658;-67
2021/10/30 09:02:00;;;;;;;;;32.80;30.00;;;;;39.30;10.41;98876.84;6020007;29;98196;-67
2021/10/30 09:05:13;;;;;;;;;34.60;30.00;;;;;39.42;11.02;98876.38;6019607;29;96526;-69
2021/10/30 09:08:18;;;;;;;;;34.00;31.40;;;;;39.46;10.57;98875.53;5994233;29;97736;-70
2021/10/30 09:11:27;;;;;;;;;30.20;29.00;;;;;39.58;10.84;98867.41;6020221;29;97378;-66
2021/10/30 09:14:32;;;;;;;;;31.60;29.00;;;;;39.71;10.33;98862.84;6009946;29;97859;-67
2021/10/30 09:17:36;;;;;;;;;33.00;30.40;;;;;39.74;10.90;98878.13;6020802;29;97021;-66
2021/10/30 09:20:40;;;;;;;;;38.00;31.00;;;;;39.72;10.85;98880.56;6020244;29;96565;-67
2021/10/30 09:23:46;;;;;;;;;32.00;30.00;;;;;39.62;10.91;98871.00;6019579;29;96457;-66
2021/10/30 09:26:53;;;;;;;;;32.60;27.00;;;;;39.46;10.82;98872.72;6013011;29;96822;-67
2021/10/30 09:29:57;;;;;;;;;31.00;28.50;;;;;39.27;11.06;98874.84;6002114;29;98604;-68
2021/10/30 09:33:03;;;;;;;;;28.20;26.00;;;;;39.09;11.83;98876.19;6019438;29;96512;-67
2021/10/30 09:36:12;;;;;;;;;28.00;26.80;;;;;39.10;11.22;98869.34;6019715;29;97070;-67
2021/10/30 09:39:18;;;;;;;;;29.00;27.00;;;;;38.95;11.16;98868.63;6020233;29;97780;-66
2021/10/30 09:42:27;;;;;;;;;31.20;29.20;;;;;38.98;11.34;98871.44;6019277;29;96551;-69
2021/10/30 09:45:31;;;;;;;;;26.00;25.00;;;;;38.83;11.85;98857.78;6019762;29;96492;-67
2021/10/30 09:48:41;;;;;;;;;28.40;26.40;;;;;38.86;11.27;98857.75;6019996;29;97200;-67
2021/10/30 09:51:46;;;;;;;;;28.25;26.25;;;;;38.85;12.20;98850.53;6019696;29;96987;-68
2021/10/30 09:54:49;;;;;;;;;28.00;24.00;;;;;38.97;11.84;98857.72;6019560;29;97633;-68
2021/10/30 09:58:04;;;;;;;;;26.25;24.25;;;;;39.17;11.67;98856.00;6002145;29;96751;-67
2021/10/30 10:01:13;;;;;;;;;27.60;26.60;;;;;39.23;12.02;98842.25;6019749;29;96422;-68
2021/10/30 10:04:19;;;;;;;;;30.20;28.00;;;;;39.37;11.98;98856.28;5995284;29;99669;-68
2021/10/30 10:07:26;;;;;;;;;25.25;24.50;;;;;39.64;11.73;98845.16;5985052;29;98817;-68
2021/10/30 10:10:30;;;;;;;;;25.00;23.00;;;;;39.89;11.56;98840.09;6020678;28;98750;-67
2021/10/30 10:13:36;;;;;;;;;27.50;25.00;;;;;40.10;11.60;98845.53;6026375;28;96569;-68
2021/10/30 10:16:39;;;;;;;;;26.80;25.00;;;;;40.31;11.40;98841.69;6010662;28;96907;-67
2021/10/30 10:19:43;;;;;;;;;25.75;23.75;;;;;40.47;11.18;98829.75;6044865;28;97528;-68
2021/10/30 10:22:48;;;;;;;;;23.50;21.50;;;;;40.61;10.68;98827.59;6029809;28;97404;-68
2021/10/30 10:25:53;;;;;;;;;23.00;22.00;;;;;40.73;10.78;98822.59;6024154;28;96499;-67
2021/10/30 10:29:05;;;;;;;;;21.00;20.00;;;;;40.64;10.90;98821.09;6020928;29;96716;-68
2021/10/30 10:32:19;;;;;;;;;22.80;21.00;;;;;40.62;10.21;98820.72;6022027;29;97537;-68
2021/10/30 10:35:22;;;;;;;;;21.60;18.60;;;;;40.48;10.69;98818.06;6023131;29;97988;-67
2021/10/30 10:39:08;;;;;;;;;19.00;18.00;;;;;40.49;10.91;98813.19;6023229;29;96465;-67
2021/10/30 10:42:13;;;;;;;;;21.00;20.00;;;;;40.64;10.01;98812.63;6023315;29;97410;-68
2021/10/30 10:45:21;;;;;;;;;21.50;21.00;;;;;40.59;10.55;98812.25;6005214;29;96973;-68
2021/10/30 10:48:24;;;;;;;;;23.00;21.00;;;;;40.37;10.29;98799.66;6019218;29;97718;-69
2021/10/30 10:51:28;;;;;;;;;19.00;17.00;;;;;40.08;10.98;98794.31;6022313;29;97445;-69
2021/10/30 10:55:04;;;;;;;;;17.00;16.00;;;;;39.65;10.69;98793.16;6022674;29;97465;-67
2021/10/30 10:58:10;;;;;;;;;16.00;15.60;;;;;39.34;10.87;98793.03;6022578;29;96921;-67
2021/10/30 11:01:14;;;;;;;;;15.50;15.00;;;;;39.16;10.89;98791.53;6005522;29;96739;-68
2021/10/30 11:04:18;;;;;;;;;16.00;16.00;;;;;38.91;11.12;98783.28;6005659;29;98449;-68
2021/10/30 11:07:21;;;;;;;;;13.80;13.00;;;;;38.46;11.41;98782.34;6004508;29;96696;-67
2021/10/30 11:10:26;;;;;;;;;11.20;11.00;;;;;38.56;11.79;98776.63;5998393;29;99676;-68
2021/10/30 11:13:33;;;;;;;;;12.25;12.00;;;;;38.71;10.70;98780.16;6022863;29;97445;-69
2021/10/30 11:16:42;;;;;;;;;10.00;9.60;;;;;38.66;10.67;98779.81;6005788;29;96735;-69
2021/10/30 11:19:48;;;;;;;;;12.00;11.00;;;;;38.15;11.00;98773.59;6022201;29;96653;-68
2021/10/30 11:23:00;;;;;;;;;8.60;8.00;;;;;36.78;11.07;98775.28;6021129;29;96616;-68
2021/10/30 11:26:04;;;;;;;;;8.00;8.00;;;;;35.62;11.67;98761.50;6022689;29;97280;-67
2021/10/30 11:29:09;;;;;;;;;8.00;7.00;;;;;35.34;12.00;98762.09;6004714;29;97077;-70
2021/10/30 11:32:13;;;;;;;;;9.00;8.00;;;;;34.72;11.69;98750.75;6018236;28;97430;-67
2021/10/30 11:35:17;;;;;;;;;9.00;8.00;;;;;34.21;12.35;98746.97;5982135;29;97764;-67
2021/10/30 11:38:20;;;;;;;;;8.00;7.60;;;;;34.65;12.66;98741.47;6022677;28;97494;-68
2021/10/30 11:41:25;;;;;;;;;8.75;8.00;;;;;34.88;12.07;98738.50;6022253;28;97106;-69
2021/10/30 11:44:31;;;;;;;;;8.00;7.40;;;;;34.82;12.17;98735.25;6026421;28;97052;-67
2021/10/30 11:47:36;;;;;;;;;7.80;6.80;;;;;34.56;12.42;98732.53;6002735;29;97419;-69
2021/10/30 11:50:52;;;;;;;;;8.00;8.00;;;;;34.48;12.21;98730.88;6033866;28;96572;-67
2021/10/30 11:53:56;;;;;;;;;7.75;7.00;;;;;34.41;12.27;98722.38;6008534;29;96614;-66
2021/10/30 11:57:01;;;;;;;;;6.50;5.50;;;;;33.88;12.36;98722.53;6028922;28;96801;-67
2021/10/30 12:00:06;;;;;;;;;8.20;8.00;;;;;34.01;12.90;98725.91;6032493;28;97587;-70
2021/10/30 12:03:16;;;;;;;;;7.00;7.00;;;;;34.56;12.66;98715.75;5993809;29;96739;-68
2021/10/30 12:06:20;;;;;;;;;8.00;7.40;;;;;34.61;12.34;98729.41;6001386;28;97613;-69
2021/10/30 12:09:27;;;;;;;;;9.00;8.50;;;;;34.43;12.79;98703.22;6002773;29;99669;-66
2021/10/30 12:12:30;;;;;;;;;7.00;6.40;;;;;34.35;12.42;98719.97;6024035;28;96918;-68
2021/10/30 12:15:40;;;;;;;;;7.00;6.00;;;;;33.85;12.73;98726.13;6010084;28;96839;-68
2021/10/30 12:18:45;;;;;;;;;8.50;8.00;;;;;33.50;12.76;98716.03;5997073;28;98692;-68
2021/10/30 12:21:48;;;;;;;;;7.80;7.00;;;;;33.36;12.92;98718.63;6032057;28;96477;-67
2021/10/30 12:25:00;;;;;;;;;6.00;5.60;;;;;32.46;13.54;98711.88;5993482;28;99949;-66
2021/10/30 12:28:04;;;;;;;;;5.20;5.00;;;;;32.17;14.04;98709.72;6013021;28;96748;-68
2021/10/30 12:31:12;;;;;;;;;7.00;7.00;;;;;31.52;14.52;98706.69;6017856;29;96429;-66
2021/10/30 12:34:25;;;;;;;;;9.00;8.00;;;;;30.95;14.88;98708.16;6004384;28;96930;-67
2021/10/30 12:37:31;;;;;;;;;8.60;8.00;;;;;30.61;15.58;98702.50;6032099;28;97498;-67
2021/10/30 12:40:51;;;;;;;;;8.00;7.00;;;;;30.17;15.99;98705.28;6023509;28;96592;-67
2021/10/30 12:43:58;;;;;;;;;7.00;6.00;;;;;30.14;16.14;98703.22;6017524;29;96795;-70
2021/10/30 12:47:04;;;;;;;;;7.40;7.00;;;;;30.19;15.75;98710.47;6022277;28;97231;-67
2021/10/30 12:50:10;;;;;;;;;7.00;7.00;;;;;29.93;16.03;98697.84;6025356;28;96703;-67
2021/10/30 12:53:25;;;;;;;;;6.00;6.00;;;;;29.88;16.47;98700.03;6004666;29;97803;-68
2021/10/30 12:56:29;;;;;;;;;6.40;6.00;;;;;30.06;16.19;98687.47;6020190;28;97541;-69
2021/10/30 12:59:37;;;;;;;;;7.00;6.00;;;;;30.17;16.17;98698.91;6019642;28;96909;-66
2021/10/30 13:02:40;;;;;;;;;8.00;8.00;;;;;30.23;16.20;98692.72;6019338;28;96853;-66
2021/10/30 13:05:46;;;;;;;;;8.60;8.00;;;;;30.13;16.04;98699.63;6018792;29;97528;-66
2021/10/30 13:08:51;;;;;;;;;10.00;9.00;;;;;30.21;16.08;98692.25;6008776;29;98737;-69
2021/10/30 13:11:55;;;;;;;;;9.00;8.00;;;;;30.33;16.62;98708.91;6011020;28;96727;-67
2021/10/30 13:14:58;;;;;;;;;10.00;8.60;;;;;30.27;16.90;98690.84;6019225;28;97750;-69
2021/10/30 13:18:03;;;;;;;;;7.40;7.00;;;;;30.54;16.52;98680.88;6018469;28;98420;-67
2021/10/30 13:21:16;;;;;;;;;8.00;8.00;;;;;30.09;16.39;98693.16;6009586;29;97027;-69
2021/10/30 13:24:19;;;;;;;;;7.00;7.00;;;;;29.82;16.29;98702.25;6023724;28;97486;-69
2021/10/30 13:27:23;;;;;;;;;7.75;5.25;;;;;29.66;16.09;98704.97;5998250;29;99650;-67
2021/10/30 13:30:26;;;;;;;;;7.00;6.00;;;;;29.57;16.31;98715.41;6018344;29;97430;-68
2021/10/30 13:33:30;;;;;;;;;6.00;6.00;;;;;29.31;16.67;98703.09;6019078;29;97472;-66
2021/10/30 13:36:35;;;;;;;;;7.40;6.40;;;;;29.24;16.89;98700.88;6016940;29;98074;-67
2021/10/30 13:39:39;;;;;;;;;7.00;6.20;;;;;29.21;16.71;98699.63;6018906;28;96424;-67
2021/10/30 13:42:43;;;;;;;;;7.00;7.00;;;;;29.20;16.82;98699.97;6015830;29;97494;-67
2021/10/30 13:45:47;;;;;;;;;7.40;7.00;;;;;29.07;17.38;98701.13;6000355;29;98417;-69
2021/10/30 13:48:53;;;;;;;;;6.60;6.60;;;;;28.90;17.38;98701.34;6014296;29;98389;-68
2021/10/30 13:51:58;;;;;;;;;7.00;6.00;;;;;28.82;17.48;98695.59;6018263;29;97076;-69
2021/10/30 13:55:01;;;;;;;;;9.50;8.75;;;;;28.61;17.06;98699.56;6017324;29;97659;-69
2021/10/30 13:58:04;;;;;;;;;7.60;7.60;;;;;28.55;17.73;98690.66;6009370;29;97926;-68
2021/10/30 14:01:08;;;;;;;;;7.00;6.00;;;;;27.70;18.22;98692.34;5979499;29;96974;-67
2021/10/30 14:04:12;;;;;;;;;7.00;6.80;;;;;27.56;18.84;98701.72;6012386;29;96786;-66
2021/10/30 14:07:18;;;;;;;;;6.00;6.00;;;;;27.29;19.11;98691.16;6019222;29;97414;-66
2021/10/30 14:10:22;;;;;;;;;6.00;6.00;;;;;27.20;19.00;98697.88;6019155;28;96407;-68
2021/10/30 14:13:26;;;;;;;;;7.40;6.40;;;;;26.69;19.66;98667.38;6019306;28;97436;-67
2021/10/30 14:16:31;;;;;;;;;6.60;6.00;;;;;26.92;19.29;98687.31;6002099;29;96597;-67
2021/10/30 14:19:34;;;;;;;;;10.00;9.00;;;;;26.94;19.59;98684.19;6015990;28;97767;-67
2021/10/30 14:22:39;;;;;;;;;8.00;7.00;;;;;26.65;20.08;98682.19;6019018;29;97477;-68
2021/10/30 14:25:42;;;;;;;;;8.00;8.00;;;;;26.22;20.35;98685.94;6019080;29;97047;-67
2021/10/30 14:28:45;;;;;;;;;9.00;8.40;;;;;26.15;20.53;98674.53;6017395;29;96775;-67
2021/10/30 14:31:49;;;;;;;;;10.00;9.00;;;;;25.95;20.78;98682.72;6014616;28;97081;-70
2021/10/30 14:34:53;;;;;;;;;10.40;8.00;;;;;25.45;21.48;98672.16;6019025;28;97529;-67
2021/10/30 14:37:57;;;;;;;;;10.00;9.00;;;;;25.34;21.62;98666.13;6018590;29;97443;-70
2021/10/30 14:41:01;;;;;;;;;11.33;11.00;;;;;25.35;21.60;98675.22;5978287;28;98002;-69
2021/10/30 14:44:06;;;;;;;;;11.00;10.40;;;;;25.52;21.38;98668.88;6002538;29;97976;-69
2021/10/30 14:47:09;;;;;;;;;10.80;9.00;;;;;25.24;21.44;98671.16;6015900;29;97932;-70
2021/10/30 14:50:13;;;;;;;;;12.00;11.00;;;;;25.32;21.40;98673.91;6000595;28;96989;-69
2021/10/30 14:53:18;;;;;;;;;11.60;10.60;;;;;24.90;22.14;98671.91;6019899;28;96835;-69
2021/10/30 14:56:21;;;;;;;;;13.20;11.00;;;;;24.54;22.48;98675.63;6025697;28;96715;-67
2021/10/30 14:59:25;;;;;;;;;10.00;10.00;;;;;24.16;23.25;98668.94;6020232;28;97575;-67
2021/10/30 15:02:28;;;;;;;;;12.00;10.00;;;;;23.95;23.58;98676.91;6019759;28;97403;-69
2021/10/30 15:05:32;;;;;;;;;12.00;10.00;;;;;23.71;23.89;98673.66;6003211;29;96660;-70
2021/10/30 15:08:37;;;;;;;;;10.60;9.60;;;;;23.56;23.71;98663.84;6020976;28;98089;-68
2021/10/30 15:11:41;;;;;;;;;9.60;9.00;;;;;23.54;23.67;98663.34;6006137;28;98052;-67
2021/10/30 15:14:45;;;;;;;;;11.00;10.00;;;;;23.53;23.86;98669.16;6027902;28;97171;-67
2021/10/30 15:17:48;;;;;;;;;8.60;7.40;;;;;23.45;23.92;98667.16;6021974;28;97595;-68
2021/10/30 15:20:51;;;;;;;;;11.00;10.00;;;;;23.39;23.91;98668.38;6022688;28;97974;-70
2021/10/30 15:23:56;;;;;;;;;11.00;10.00;;;;;23.44;23.53;98663.56;6022791;28;97473;-68
2021/10/30 15:27:03;;;;;;;;;8.00;8.00;;;;;23.42;23.53;98665.81;6029891;28;97661;-67
2021/10/30 15:30:08;;;;;;;;;11.00;10.00;;;;;23.46;23.28;98660.50;6021946;28;97538;-69
2021/10/30 15:33:11;;;;;;;;;8.00;8.00;;;;;23.32;23.41;98663.28;6021190;28;96616;-70
2021/10/30 15:36:16;;;;;;;;;10.00;9.00;;;;;23.36;23.13;98655.25;6020605;29;97411;-69
2021/10/30 15:39:21;;;;;;;;;9.25;7.75;;;;;23.36;23.05;98664.28;6020777;28;97561;-70
2021/10/30 15:42:24;;;;;;;;;11.00;9.40;;;;;23.32;23.33;98666.84;6023263;28;96794;-67
2021/10/30 15:45:28;;;;;;;;;9.00;8.00;;;;;23.40;22.81;98662.56;6018225;28;99639;-67
2021/10/30 15:48:32;;;;;;;;;11.00;10.00;;;;;23.39;23.23;98671.13;6029618;28;96729;-69
2021/10/30 15:51:36;;;;;;;;;10.00;9.00;;;;;23.31;23.21;98665.22;6021146;28;97881;-69
2021/10/30 15:54:40;;;;;;;;;10.00;9.00;;;;;23.24;23.48;98672.28;6024839;28;97046;-68
2021/10/30 15:57:44;;;;;;;;;9.00;9.00;;;;;23.20;23.31;98663.03;6014068;29;96572;-69
2021/10/30 16:00:49;;;;;;;;;10.00;9.40;;;;;23.08;23.48;98666.31;6004114;28;97973;-69
2021/10/30 16:03:53;;;;;;;;;9.40;9.00;;;;;22.98;23.91;98661.03;6021391;28;97717;-68
2021/10/30 16:06:56;;;;;;;;;11.00;10.00;;;;;22.93;23.96;98663.06;6035039;28;97156;-68
2021/10/30 16:10:01;;;;;;;;;9.00;9.00;;;;;22.83;23.92;98686.09;6023492;28;97621;-68
2021/10/30 16:13:05;;;;;;;;;12.00;10.00;;;;;22.76;23.73;98667.28;5997120;29;96992;-68
2021/10/30 16:16:08;;;;;;;;;11.25;10.00;;;;;22.72;23.41;98670.94;6028037;28;96814;-69
2021/10/30 16:19:12;;;;;;;;;10.40;9.40;;;;;22.67;23.73;98677.31;6023884;28;96463;-67
2021/10/30 16:22:15;;;;;;;;;11.00;10.00;;;;;22.61;23.58;98674.97;6023085;28;97469;-68
2021/10/30 16:25:20;;;;;;;;;9.75;8.00;;;;;22.61;23.28;98683.22;6019080;28;97467;-69
2021/10/30 16:28:23;;;;;;;;;8.40;8.40;;;;;22.55;23.82;98682.50;6022953;28;97043;-68
2021/10/30 16:31:26;;;;;;;;;11.40;9.40;;;;;22.49;23.68;98686.47;6004330;29;97241;-69
2021/10/30 16:34:30;;;;;;;;;11.20;10.80;;;;;22.44;23.87;98686.56;6025559;28;97503;-68
2021/10/30 16:37:34;;;;;;;;;17.00;14.40;;;;;22.35;23.85;98691.13;6019209;29;97067;-67
2021/10/30 16:40:39;;;;;;;;;16.00;15.40;;;;;22.25;24.16;98685.81;6019548;29;96803;-69
2021/10/30 16:43:43;;;;;;;;;15.00;14.75;;;;;22.16;24.63;98684.88;6019524;29;97439;-67
2021/10/30 16:46:48;;;;;;;;;15.80;13.00;;;;;22.01;24.82;98694.22;6003172;28;98126;-69
2021/10/30 16:49:54;;;;;;;;;16.00;15.00;;;;;21.88;24.69;98686.72;6019258;28;98092;-69
2021/10/30 16:52:57;;;;;;;;;15.80;15.00;;;;;21.58;25.17;98685.28;6020074;28;96744;-67
2021/10/30 16:56:02;;;;;;;;;17.00;16.00;;;;;21.57;25.48;98675.41;6018608;29;97451;-68
2021/10/30 16:59:05;;;;;;;;;19.40;17.80;;;;;21.53;25.58;98688.94;6018552;28;96640;-68
2021/10/30 17:02:09;;;;;;;;;19.00;17.00;;;;;21.46;25.13;98685.72;6017957;28;97879;-66
2021/10/30 17:05:12;;;;;;;;;17.60;16.00;;;;;21.46;25.51;98695.88;6018993;28;96583;-66
2021/10/30 17:08:16;;;;;;;;;17.50;16.00;;;;;21.43;25.77;98700.06;6002647;28;97528;-68
2021/10/30 17:11:21;;;;;;;;;18.20;17.20;;;;;21.35;26.42;98699.91;6018615;28;98071;-68
2021/10/30 17:14:24;;;;;;;;;18.80;17.00;;;;;21.28;26.63;98699.44;6005893;28;97619;-69
2021/10/30 17:17:28;;;;;;;;;24.25;22.00;;;;;21.12;27.09;98696.88;5995189;29;97447;-70
2021/10/30 17:20:32;;;;;;;;;26.00;25.00;;;;;21.02;26.94;98696.19;6019264;28;96717;-69
2021/10/30 17:23:37;;;;;;;;;24.00;21.00;;;;;20.84;27.27;98703.28;6018644;29;96757;-68
2021/10/30 17:26:42;;;;;;;;;21.00;18.20;;;;;20.66;27.72;98701.31;6001169;28;97463;-68
2021/10/30 17:29:45;;;;;;;;;19.00;17.00;;;;;20.55;27.44;98699.78;6018255;28;97088;-67
2021/10/30 17:32:50;;;;;;;;;17.00;15.00;;;;;20.43;27.22;98696.66;6019249;28;96587;-68
2021/10/30 17:35:53;;;;;;;;;21.00;17.00;;;;;20.28;27.66;98689.41;6000226;29;98315;-69
2021/10/30 17:38:57;;;;;;;;;15.50;14.75;;;;;20.40;27.42;98700.78;6001608;28;97389;-66
2021/10/30 17:42:06;;;;;;;;;19.00;17.00;;;;;20.41;27.24;98696.94;6007796;28;97431;-69
2021/10/30 17:45:11;;;;;;;;;16.00;16.00;;;;;20.37;27.28;98695.06;6022588;28;97139;-67
2021/10/30 17:48:14;;;;;;;;;19.33;17.00;;;;;20.26;26.72;98695.16;6023953;28;98874;-66
2021/10/30 17:51:18;;;;;;;;;20.75;17.75;;;;;20.19;27.22;98702.03;6017362;29;96729;-68
2021/10/30 17:54:22;;;;;;;;;15.00;14.00;;;;;20.15;26.97;98696.34;6001721;28;97906;-68
2021/10/30 17:57:26;;;;;;;;;14.00;12.50;;;;;19.77;27.11;98705.44;6009532;29;96809;-70
2021/10/30 18:00:35;;;;;;;;;16.00;13.00;;;;;19.92;26.72;98704.50;6022647;28;97513;-66
2021/10/30 18:03:39;;;;;;;;;14.00;12.25;;;;;19.99;26.68;98681.16;6016124;28;97803;-68
2021/10/30 18:06:42;;;;;;;;;14.40;13.00;;;;;20.18;26.29;98686.75;6027992;28;98077;-66
2021/10/30 18:09:45;;;;;;;;;14.00;12.00;;;;;20.29;26.23;98683.59;6019664;28;96627;-67
2021/10/30 18:12:50;;;;;;;;;11.00;10.00;;;;;20.05;26.52;98665.50;6023264;28;97481;-69
2021/10/30 18:15:54;;;;;;;;;11.80;11.00;;;;;19.97;26.94;98690.78;5990977;29;96738;-66
2021/10/30 18:18:57;;;;;;;;;12.00;10.00;;;;;20.10;26.70;98684.63;6001280;29;96794;-68
2021/10/30 18:22:00;;;;;;;;;12.00;11.00;;;;;19.84;27.14;98686.78;5998909;29;96695;-69
2021/10/30 18:25:07;;;;;;;;;11.00;10.00;;;;;19.84;26.97;98686.78;6015087;29;97530;-68
2021/10/30 18:28:11;;;;;;;;;13.60;12.60;;;;;19.99;27.13;98694.06;6013365;28;98615;-68
2021/10/30 18:31:14;;;;;;;;;11.00;11.00;;;;;20.05;26.71;98690.16;6013535;28;96606;-66
2021/10/30 18:34:18;;;;;;;;;14.40;12.00;;;;;19.98;26.87;98692.41;6003795;28;97447;-69
2021/10/30 18:37:21;;;;;;;;;13.00;11.80;;;;;20.05;26.76;98690.97;5997039;29;97563;-66
2021/10/30 18:40:25;;;;;;;;;13.80;12.20;;;;;20.03;26.60;98681.44;6017146;28;97271;-67
2021/10/30 18:43:30;;;;;;;;;13.00;12.50;;;;;20.16;26.69;98697.16;6000458;29;97566;-69
2021/10/30 18:46:34;;;;;;;;;16.60;14.60;;;;;20.23;26.35;98694.91;6020114;28;96589;-70
2021/10/30 18:49:38;;;;;;;;;14.00;13.00;;;;;20.29;26.53;98685.53;6018450;29;97304;-68
2021/10/30 18:52:41;;;;;;;;;12.20;12.20;;;;;20.43;26.08;98702.13;5986481;29;96931;-69
2021/10/30 18:55:44;;;;;;;;;16.20;15.80;;;;;20.42;26.21;98704.06;6018513;29;97451;-68
2021/10/30 18:58:49;;;;;;;;;15.50;14.50;;;;;20.34;26.22;98696.47;6001984;29;97080;-67
2021/10/30 19:01:53;;;;;;;;;13.00;12.00;;;;;20.27;26.16;98702.25;6018916;29;96953;-66
2021/10/30 19:04:56;;;;;;;;;11.00;11.00;;;;;20.22;26.38;98699.56;6018373;29;97604;-67